createdAt,value
2018-05-15T00:00:06.554Z,48.06
2018-05-15T00:00:32.729Z,48.35
2018-05-15T00:00:58.918Z,48.54
2018-05-15T00:01:25.172Z,48.64
2018-05-15T00:01:51.348Z,48.64
2018-05-15T00:02:17.795Z,48.54
2018-05-15T00:02:43.891Z,48.54
2018-05-15T00:03:10.131Z,48.25
2018-05-15T00:03:36.364Z,48.25
2018-05-15T00:04:02.528Z,48.25
2018-05-15T00:04:28.709Z,48.54
2018-05-15T00:04:54.830Z,48.44
2018-05-15T00:05:20.993Z,48.54
2018-05-15T00:05:47.129Z,48.64
2018-05-15T00:06:13.440Z,48.64
2018-05-15T00:06:39.575Z,48.93
2018-05-15T00:07:05.804Z,48.74
2018-05-15T00:07:32.036Z,48.93
2018-05-15T00:07:58.186Z,48.93
2018-05-15T00:08:24.382Z,48.93
2018-05-15T00:08:50.673Z,48.93
2018-05-15T00:09:16.782Z,48.93
2018-05-15T00:09:43.021Z,48.83
2018-05-15T00:10:09.205Z,49.02
2018-05-15T00:10:35.364Z,48.93
2018-05-15T00:11:01.606Z,48.93
2018-05-15T00:11:27.691Z,48.93
2018-05-15T00:11:53.884Z,48.74
2018-05-15T00:12:20.167Z,48.64
2018-05-15T00:12:46.444Z,49.02
2018-05-15T00:13:12.565Z,49.22
2018-05-15T00:13:38.765Z,49.22
2018-05-15T00:14:04.892Z,49.22
2018-05-15T00:14:31.060Z,49.02
2018-05-15T00:14:57.185Z,49.02
2018-05-15T00:15:23.505Z,49.02
2018-05-15T00:15:49.665Z,49.32
2018-05-15T00:16:15.806Z,49.12
2018-05-15T00:16:41.957Z,49.38
2018-05-15T00:17:08.116Z,49.48
2018-05-15T00:17:34.376Z,49.58
2018-05-15T00:18:00.511Z,49.48
2018-05-15T00:18:26.664Z,49.32
2018-05-15T00:18:52.804Z,49.48
2018-05-15T00:19:18.961Z,49.29
2018-05-15T00:19:45.106Z,50.15
2018-05-15T00:20:11.263Z,49.77
2018-05-15T00:20:37.390Z,49.58
2018-05-15T00:21:03.595Z,49.68
2018-05-15T00:21:29.747Z,49.58
2018-05-15T00:21:55.916Z,49.68
2018-05-15T00:22:22.088Z,50.25
2018-05-15T00:22:48.360Z,50.15
2018-05-15T00:23:14.509Z,50.06
2018-05-15T00:23:40.884Z,50.06
2018-05-15T00:24:07.130Z,50.15
2018-05-15T00:24:33.258Z,50.35
2018-05-15T00:24:59.436Z,50.06
2018-05-15T00:25:25.662Z,50.15
2018-05-15T00:25:51.997Z,50.45
2018-05-15T00:26:18.161Z,49.68
2018-05-15T00:26:44.291Z,50.25
2018-05-15T00:27:10.424Z,50.35
2018-05-15T00:27:36.603Z,50.83
2018-05-15T00:28:02.743Z,50.35
2018-05-15T00:28:28.925Z,50.54
2018-05-15T00:28:55.123Z,50.54
2018-05-15T00:29:21.370Z,50.06
2018-05-15T00:29:47.606Z,50.15
2018-05-15T00:30:13.799Z,50.15
2018-05-15T00:30:39.946Z,50.04
2018-05-15T00:31:06.235Z,50.23
2018-05-15T00:31:32.414Z,50.51
2018-05-15T00:31:58.734Z,50.81
2018-05-15T00:32:24.916Z,50.42
2018-05-15T00:32:51.063Z,50.51
2018-05-15T00:33:17.277Z,50.32
2018-05-15T00:33:43.428Z,50.51
2018-05-15T00:34:09.579Z,50.71
2018-05-15T00:34:35.725Z,50.81
2018-05-15T00:35:01.886Z,51.48
2018-05-15T00:35:28.023Z,51.76
2018-05-15T00:35:54.169Z,51.29
2018-05-15T00:36:20.299Z,51.19
2018-05-15T00:36:46.426Z,50.71
2018-05-15T00:37:12.595Z,50.61
2018-05-15T00:37:38.720Z,50.61
2018-05-15T00:38:04.868Z,50.99
2018-05-15T00:38:31.024Z,50.9
2018-05-15T00:38:57.145Z,50.71
2018-05-15T00:39:23.291Z,50.99
2018-05-15T00:39:49.419Z,50.9
2018-05-15T00:40:15.544Z,51.09
2018-05-15T00:40:41.688Z,50.99
2018-05-15T00:41:07.814Z,51.09
2018-05-15T00:41:33.939Z,51.09
2018-05-15T00:42:00.064Z,51.38
2018-05-15T00:42:26.192Z,51.67
2018-05-15T00:42:52.338Z,51.09
2018-05-15T00:43:18.463Z,51.19
2018-05-15T00:43:44.608Z,50.9
2018-05-15T00:44:10.792Z,50.9
2018-05-15T00:44:36.874Z,51.09
2018-05-15T00:45:03.000Z,51.38
2018-05-15T00:45:29.128Z,51.29
2018-05-15T00:45:55.251Z,50.9
2018-05-15T00:46:21.396Z,50.81
2018-05-15T00:46:47.524Z,50.59
2018-05-15T00:47:13.672Z,51.26
2018-05-15T00:47:39.838Z,51.17
2018-05-15T00:48:05.965Z,51.55
2018-05-15T00:48:32.092Z,51.38
2018-05-15T00:48:58.239Z,51.38
2018-05-15T00:49:24.366Z,51.38
2018-05-15T00:49:50.527Z,51.35
2018-05-15T00:50:16.671Z,51.57
2018-05-15T00:50:42.843Z,51.09
2018-05-15T00:51:08.984Z,51.19
2018-05-15T00:51:35.119Z,51.48
2018-05-15T00:52:01.266Z,51.09
2018-05-15T00:52:27.405Z,50.81
2018-05-15T00:52:53.546Z,50.71
2018-05-15T00:53:19.688Z,51.09
2018-05-15T00:53:45.825Z,51.09
2018-05-15T00:54:11.979Z,50.9
2018-05-15T00:54:38.111Z,50.9
2018-05-15T00:55:04.253Z,51.38
2018-05-15T00:55:30.387Z,50.9
2018-05-15T00:55:56.536Z,50.13
2018-05-15T00:56:22.696Z,50.71
2018-05-15T00:56:48.838Z,50.51
2018-05-15T00:57:14.978Z,50.71
2018-05-15T00:57:41.116Z,50.87
2018-05-15T00:58:07.261Z,50.59
2018-05-15T00:58:33.397Z,50.68
2018-05-15T00:58:59.537Z,50.49
2018-05-15T00:59:25.700Z,50.3
2018-05-15T00:59:51.841Z,50.78
2018-05-15T01:00:17.986Z,50.49
2018-05-15T01:00:44.127Z,50.49
2018-05-15T01:01:10.263Z,50.3
2018-05-15T01:01:36.404Z,50.23
2018-05-15T01:02:02.535Z,49.91
2018-05-15T01:02:28.669Z,50.1
2018-05-15T01:02:54.810Z,50.4
2018-05-15T01:03:20.973Z,50.23
2018-05-15T01:03:47.109Z,50.4
2018-05-15T01:04:13.255Z,50.4
2018-05-15T01:04:39.441Z,50.13
2018-05-15T01:05:05.609Z,49.91
2018-05-15T01:05:31.745Z,50.3
2018-05-15T01:05:57.889Z,50.1
2018-05-15T01:06:24.053Z,50.01
2018-05-15T01:06:50.213Z,49.43
2018-05-15T01:07:16.355Z,50.2
2018-05-15T01:07:42.491Z,50.1
2018-05-15T01:08:08.636Z,50.1
2018-05-15T01:08:34.769Z,49.91
2018-05-15T01:09:00.913Z,49.82
2018-05-15T01:09:27.051Z,50.2
2018-05-15T01:09:53.195Z,49.91
2018-05-15T01:10:19.328Z,50.1
2018-05-15T01:10:45.490Z,50.4
2018-05-15T01:11:11.628Z,50.59
2018-05-15T01:11:37.769Z,49.91
2018-05-15T01:12:03.918Z,50.2
2018-05-15T01:12:30.074Z,50.01
2018-05-15T01:12:56.224Z,49.63
2018-05-15T01:13:22.365Z,50.2
2018-05-15T01:13:48.512Z,50.18
2018-05-15T01:14:14.641Z,50.2
2018-05-15T01:14:40.812Z,50.08
2018-05-15T01:15:06.948Z,50.18
2018-05-15T01:15:33.084Z,50.08
2018-05-15T01:15:59.224Z,50.08
2018-05-15T01:16:25.390Z,49.89
2018-05-15T01:16:51.527Z,50.37
2018-05-15T01:17:17.673Z,49.89
2018-05-15T01:17:43.865Z,50.27
2018-05-15T01:18:10.005Z,50.46
2018-05-15T01:18:36.142Z,50.68
2018-05-15T01:19:02.302Z,50.3
2018-05-15T01:19:28.441Z,50.3
2018-05-15T01:19:54.581Z,50.3
2018-05-15T01:20:20.753Z,49.99
2018-05-15T01:20:46.921Z,50.01
2018-05-15T01:21:13.065Z,50.1
2018-05-15T01:21:39.233Z,49.63
2018-05-15T01:22:05.369Z,49.53
2018-05-15T01:22:31.511Z,49.33
2018-05-15T01:22:57.648Z,49.31
2018-05-15T01:23:23.793Z,49.6
2018-05-15T01:23:49.936Z,49.89
2018-05-15T01:24:16.099Z,49.6
2018-05-15T01:24:42.243Z,49.89
2018-05-15T01:25:08.379Z,50.27
2018-05-15T01:25:34.514Z,49.89
2018-05-15T01:26:00.656Z,50.27
2018-05-15T01:26:26.796Z,49.99
2018-05-15T01:26:52.938Z,49.99
2018-05-15T01:27:19.108Z,49.79
2018-05-15T01:27:45.292Z,50.08
2018-05-15T01:28:11.428Z,50.18
2018-05-15T01:28:37.571Z,49.99
2018-05-15T01:29:03.740Z,50.27
2018-05-15T01:29:29.879Z,50.18
2018-05-15T01:29:56.019Z,49.99
2018-05-15T01:30:22.200Z,50.27
2018-05-15T01:30:48.343Z,50.95
2018-05-15T01:31:14.485Z,50.66
2018-05-15T01:31:40.661Z,50.66
2018-05-15T01:32:06.832Z,50.27
2018-05-15T01:32:33.000Z,49.89
2018-05-15T01:32:59.135Z,50.27
2018-05-15T01:33:25.301Z,50.27
2018-05-15T01:33:51.441Z,50.56
2018-05-15T01:34:17.581Z,50.46
2018-05-15T01:34:43.720Z,50.08
2018-05-15T01:35:09.861Z,50.27
2018-05-15T01:35:36.005Z,50.46
2018-05-15T01:36:02.170Z,49.99
2018-05-15T01:36:28.331Z,50.18
2018-05-15T01:36:54.474Z,49.79
2018-05-15T01:37:20.611Z,50.08
2018-05-15T01:37:46.754Z,50.37
2018-05-15T01:38:12.916Z,49.99
2018-05-15T01:38:39.080Z,50.18
2018-05-15T01:39:05.217Z,50.08
2018-05-15T01:39:31.369Z,49.69
2018-05-15T01:39:57.509Z,50.18
2018-05-15T01:40:23.652Z,50.37
2018-05-15T01:40:49.791Z,50.18
2018-05-15T01:41:15.933Z,50.18
2018-05-15T01:41:42.068Z,50.56
2018-05-15T01:42:08.235Z,50.27
2018-05-15T01:42:34.380Z,50.46
2018-05-15T01:43:00.536Z,50.27
2018-05-15T01:43:26.675Z,50.18
2018-05-15T01:43:52.812Z,50.18
2018-05-15T01:44:18.958Z,50.08
2018-05-15T01:44:45.085Z,49.99
2018-05-15T01:45:11.230Z,49.89
2018-05-15T01:45:37.368Z,50.08
2018-05-15T01:46:03.507Z,50.05
2018-05-15T01:46:29.648Z,50.05
2018-05-15T01:46:55.815Z,50.05
2018-05-15T01:47:21.962Z,49.31
2018-05-15T01:47:48.091Z,49.99
2018-05-15T01:48:14.241Z,49.69
2018-05-15T01:48:40.387Z,49.87
2018-05-15T01:49:06.515Z,49.89
2018-05-15T01:49:32.661Z,49.89
2018-05-15T01:49:58.803Z,49.89
2018-05-15T01:50:24.944Z,50.15
2018-05-15T01:50:51.082Z,50.15
2018-05-15T01:51:17.246Z,50.18
2018-05-15T01:51:43.382Z,50.15
2018-05-15T01:52:09.522Z,50.44
2018-05-15T01:52:35.680Z,49.87
2018-05-15T01:53:01.849Z,49.87
2018-05-15T01:53:28.006Z,50.34
2018-05-15T01:53:54.145Z,49.96
2018-05-15T01:54:20.311Z,50.05
2018-05-15T01:54:46.487Z,50.34
2018-05-15T01:55:12.628Z,50.25
2018-05-15T01:55:38.768Z,50.05
2018-05-15T01:56:04.913Z,50.15
2018-05-15T01:56:31.077Z,50.63
2018-05-15T01:56:57.209Z,50.63
2018-05-15T01:57:23.351Z,50.44
2018-05-15T01:57:49.505Z,50.73
2018-05-15T01:58:15.638Z,50.25
2018-05-15T01:58:41.775Z,50.25
2018-05-15T01:59:07.915Z,50.63
2018-05-15T01:59:34.051Z,50.44
2018-05-15T02:00:00.191Z,50.63
2018-05-15T02:00:26.334Z,50.15
2018-05-15T02:00:52.497Z,50.25
2018-05-15T02:01:18.642Z,50.34
2018-05-15T02:01:44.800Z,50.05
2018-05-15T02:02:10.961Z,50.15
2018-05-15T02:02:37.096Z,50.15
2018-05-15T02:03:03.266Z,50.25
2018-05-15T02:03:29.398Z,50.63
2018-05-15T02:03:55.562Z,50.25
2018-05-15T02:04:21.725Z,50.54
2018-05-15T02:04:47.898Z,50.44
2018-05-15T02:05:14.030Z,50.25
2018-05-15T02:05:40.169Z,50.54
2018-05-15T02:06:06.310Z,50.63
2018-05-15T02:06:32.455Z,50.63
2018-05-15T02:06:58.597Z,50.73
2018-05-15T02:07:24.731Z,50.54
2018-05-15T02:07:50.867Z,50.34
2018-05-15T02:08:17.007Z,50.63
2018-05-15T02:08:43.142Z,50.44
2018-05-15T02:09:09.280Z,50.44
2018-05-15T02:09:35.419Z,50.54
2018-05-15T02:10:01.561Z,50.34
2018-05-15T02:10:27.697Z,50.34
2018-05-15T02:10:53.831Z,50.15
2018-05-15T02:11:19.978Z,50.25
2018-05-15T02:11:46.115Z,50.44
2018-05-15T02:12:12.256Z,50.63
2018-05-15T02:12:38.393Z,50.63
2018-05-15T02:13:04.533Z,50.25
2018-05-15T02:13:30.669Z,50.44
2018-05-15T02:13:56.808Z,50.05
2018-05-15T02:14:22.949Z,50.25
2018-05-15T02:14:49.090Z,50.92
2018-05-15T02:15:15.229Z,50.63
2018-05-15T02:15:41.366Z,50.63
2018-05-15T02:16:07.540Z,50.54
2018-05-15T02:16:33.673Z,50.15
2018-05-15T02:16:59.813Z,50.73
2018-05-15T02:17:25.953Z,50.34
2018-05-15T02:17:52.088Z,50.54
2018-05-15T02:18:18.257Z,50.63
2018-05-15T02:18:44.401Z,50.73
2018-05-15T02:19:10.565Z,50.15
2018-05-15T02:19:36.772Z,50.44
2018-05-15T02:20:02.902Z,50.63
2018-05-15T02:20:29.047Z,50.54
2018-05-15T02:20:55.268Z,50.34
2018-05-15T02:21:21.316Z,50.34
2018-05-15T02:21:47.455Z,50.25
2018-05-15T02:22:13.630Z,49.96
2018-05-15T02:22:39.771Z,50.25
2018-05-15T02:23:05.909Z,50.15
2018-05-15T02:23:32.046Z,50.25
2018-05-15T02:23:58.191Z,50.34
2018-05-15T02:24:24.327Z,50.73
2018-05-15T02:24:50.468Z,50.44
2018-05-15T02:25:16.632Z,50.05
2018-05-15T02:25:42.772Z,50.51
2018-05-15T02:26:08.906Z,50.8
2018-05-15T02:26:35.052Z,50.92
2018-05-15T02:27:01.188Z,50.8
2018-05-15T02:27:27.321Z,50.54
2018-05-15T02:27:53.489Z,50.23
2018-05-15T02:28:19.629Z,50.51
2018-05-15T02:28:45.775Z,50.51
2018-05-15T02:29:11.915Z,50.23
2018-05-15T02:29:38.050Z,50.23
2018-05-15T02:30:04.188Z,50.42
2018-05-15T02:30:30.329Z,50.32
2018-05-15T02:30:56.461Z,50.42
2018-05-15T02:31:22.658Z,50.42
2018-05-15T02:31:48.811Z,50.42
2018-05-15T02:32:14.936Z,50.32
2018-05-15T02:32:41.124Z,50.61
2018-05-15T02:33:07.305Z,50.42
2018-05-15T02:33:33.470Z,50.61
2018-05-15T02:33:59.657Z,50.8
2018-05-15T02:34:25.854Z,50.7
2018-05-15T02:34:52.020Z,50.61
2018-05-15T02:35:18.183Z,50.42
2018-05-15T02:35:44.332Z,50.7
2018-05-15T02:36:10.501Z,50.32
2018-05-15T02:36:36.688Z,50.7
2018-05-15T02:37:02.851Z,50.51
2018-05-15T02:37:29.020Z,50.42
2018-05-15T02:37:55.188Z,50.23
2018-05-15T02:38:21.370Z,50.7
2018-05-15T02:38:47.506Z,50.7
2018-05-15T02:39:13.672Z,50.61
2018-05-15T02:39:39.838Z,50.7
2018-05-15T02:40:06.025Z,51.09
2018-05-15T02:40:32.195Z,50.51
2018-05-15T02:40:58.404Z,50.23
2018-05-15T02:41:24.563Z,50.7
2018-05-15T02:41:50.737Z,50.61
2018-05-15T02:42:16.887Z,50.23
2018-05-15T02:42:43.052Z,50.42
2018-05-15T02:43:09.200Z,50.42
2018-05-15T02:43:35.369Z,50.61
2018-05-15T02:44:01.537Z,50.51
2018-05-15T02:44:27.699Z,50.03
2018-05-15T02:44:53.859Z,50.13
2018-05-15T02:45:20.023Z,50.42
2018-05-15T02:45:46.169Z,50.42
2018-05-15T02:46:12.301Z,50.23
2018-05-15T02:46:38.447Z,50.23
2018-05-15T02:47:04.608Z,50.42
2018-05-15T02:47:30.797Z,50.32
2018-05-15T02:47:56.948Z,50.8
2018-05-15T02:48:23.091Z,50.23
2018-05-15T02:48:49.278Z,50.23
2018-05-15T02:49:15.490Z,50.61
2018-05-15T02:49:41.650Z,50.61
2018-05-15T02:50:07.792Z,50.61
2018-05-15T02:50:33.928Z,50.51
2018-05-15T02:51:00.088Z,50.51
2018-05-15T02:51:26.253Z,50.61
2018-05-15T02:51:52.434Z,50.03
2018-05-15T02:52:18.599Z,50.61
2018-05-15T02:52:44.763Z,50.7
2018-05-15T02:53:10.932Z,50.99
2018-05-15T02:53:37.118Z,50.99
2018-05-15T02:54:03.279Z,50.61
2018-05-15T02:54:29.449Z,50.9
2018-05-15T02:54:55.612Z,50.8
2018-05-15T02:55:21.746Z,50.51
2018-05-15T02:55:47.968Z,50.99
2018-05-15T02:56:14.018Z,51.18
2018-05-15T02:56:40.167Z,50.99
2018-05-15T02:57:06.314Z,50.13
2018-05-15T02:57:32.459Z,50.61
2018-05-15T02:57:58.613Z,50.61
2018-05-15T02:58:24.769Z,50.42
2018-05-15T02:58:50.938Z,50.7
2018-05-15T02:59:17.098Z,50.9
2018-05-15T02:59:43.276Z,51.47
2018-05-15T03:00:09.475Z,51.28
2018-05-15T03:00:35.797Z,51.47
2018-05-15T03:01:02.079Z,50.9
2018-05-15T03:01:28.334Z,50.99
2018-05-15T03:01:54.753Z,50.99
2018-05-15T03:02:20.890Z,51.09
2018-05-15T03:02:47.198Z,51.28
2018-05-15T03:03:13.464Z,51.09
2018-05-15T03:03:39.720Z,51.67
2018-05-15T03:04:05.905Z,51.37
2018-05-15T03:04:32.193Z,51.47
2018-05-15T03:04:58.557Z,52.34
2018-05-15T03:05:24.889Z,52.43
2018-05-15T03:05:51.125Z,52.34
2018-05-15T03:06:17.175Z,52.34
2018-05-15T03:06:43.360Z,52.34
2018-05-15T03:07:09.520Z,52.24
2018-05-15T03:07:35.685Z,52.24
2018-05-15T03:08:01.847Z,51.95
2018-05-15T03:08:27.991Z,52.43
2018-05-15T03:08:54.164Z,51.95
2018-05-15T03:09:20.296Z,51.67
2018-05-15T03:09:46.483Z,51.57
2018-05-15T03:10:12.693Z,51.37
2018-05-15T03:10:38.883Z,51.47
2018-05-15T03:11:05.043Z,51.76
2018-05-15T03:11:31.255Z,51.67
2018-05-15T03:11:57.347Z,51.37
2018-05-15T03:12:23.487Z,51.28
2018-05-15T03:12:49.652Z,51.28
2018-05-15T03:13:15.836Z,51.67
2018-05-15T03:13:42.003Z,52.24
2018-05-15T03:14:08.158Z,52.05
2018-05-15T03:14:34.320Z,52.43
2018-05-15T03:15:00.484Z,52.43
2018-05-15T03:15:26.622Z,52.34
2018-05-15T03:15:52.757Z,52.53
2018-05-15T03:16:18.895Z,52.24
2018-05-15T03:16:45.082Z,52.43
2018-05-15T03:17:11.221Z,51.67
2018-05-15T03:17:37.406Z,52.34
2018-05-15T03:18:03.553Z,52.24
2018-05-15T03:18:29.690Z,52.43
2018-05-15T03:18:55.833Z,51.47
2018-05-15T03:19:21.966Z,52.14
2018-05-15T03:19:48.114Z,52.34
2018-05-15T03:20:14.250Z,52.05
2018-05-15T03:20:40.391Z,53.01
2018-05-15T03:21:06.535Z,52.91
2018-05-15T03:21:32.678Z,52.81
2018-05-15T03:21:58.810Z,52.34
2018-05-15T03:22:24.957Z,51.95
2018-05-15T03:22:51.088Z,52.24
2018-05-15T03:23:17.235Z,52.05
2018-05-15T03:23:43.416Z,52.14
2018-05-15T03:24:09.558Z,52.05
2018-05-15T03:24:35.692Z,51.95
2018-05-15T03:25:01.828Z,52.53
2018-05-15T03:25:27.981Z,52.81
2018-05-15T03:25:54.141Z,52.53
2018-05-15T03:26:20.285Z,53.01
2018-05-15T03:26:46.424Z,52.91
2018-05-15T03:27:12.564Z,52.81
2018-05-15T03:27:38.701Z,52.62
2018-05-15T03:28:04.840Z,52.62
2018-05-15T03:28:30.979Z,52.62
2018-05-15T03:28:57.141Z,52.81
2018-05-15T03:29:23.278Z,52.72
2018-05-15T03:29:49.416Z,52.81
2018-05-15T03:30:15.577Z,52.91
2018-05-15T03:30:41.746Z,52.81
2018-05-15T03:31:07.911Z,52.81
2018-05-15T03:31:34.079Z,52.91
2018-05-15T03:32:00.263Z,52.91
2018-05-15T03:32:26.410Z,52.91
2018-05-15T03:32:52.544Z,52.72
2018-05-15T03:33:18.708Z,52.53
2018-05-15T03:33:44.870Z,52.72
2018-05-15T03:34:11.011Z,52.62
2018-05-15T03:34:37.145Z,52.53
2018-05-15T03:35:03.288Z,52.81
2018-05-15T03:35:29.428Z,52.62
2018-05-15T03:35:55.562Z,52.62
2018-05-15T03:36:21.705Z,52.81
2018-05-15T03:36:47.848Z,52.91
2018-05-15T03:37:13.981Z,52.91
2018-05-15T03:37:40.120Z,52.81
2018-05-15T03:38:06.257Z,53.11
2018-05-15T03:38:32.405Z,53.68
2018-05-15T03:38:58.547Z,52.81
2018-05-15T03:39:24.684Z,52.81
2018-05-15T03:39:50.823Z,52.81
2018-05-15T03:40:17.013Z,52.91
2018-05-15T03:40:43.158Z,53.68
2018-05-15T03:41:09.327Z,53.68
2018-05-15T03:41:35.465Z,52.81
2018-05-15T03:42:01.613Z,52.43
2018-05-15T03:42:27.748Z,53.01
2018-05-15T03:42:53.908Z,53.01
2018-05-15T03:43:20.046Z,52.72
2018-05-15T03:43:46.184Z,53.49
2018-05-15T03:44:12.374Z,53.3
2018-05-15T03:44:38.509Z,53.2
2018-05-15T03:45:04.645Z,53.11
2018-05-15T03:45:30.785Z,53.11
2018-05-15T03:45:56.920Z,53.39
2018-05-15T03:46:23.073Z,53.49
2018-05-15T03:46:49.198Z,53.3
2018-05-15T03:47:15.338Z,53.11
2018-05-15T03:47:41.476Z,53.49
2018-05-15T03:48:07.614Z,53.87
2018-05-15T03:48:33.759Z,53.78
2018-05-15T03:48:59.897Z,53.78
2018-05-15T03:49:26.042Z,53.97
2018-05-15T03:49:52.178Z,53.68
2018-05-15T03:50:18.312Z,53.58
2018-05-15T03:50:44.450Z,53.11
2018-05-15T03:51:10.593Z,53.87
2018-05-15T03:51:36.726Z,53.78
2018-05-15T03:52:02.870Z,53.58
2018-05-15T03:52:29.013Z,53.97
2018-05-15T03:52:55.157Z,53.78
2018-05-15T03:53:21.323Z,54.55
2018-05-15T03:53:47.457Z,54.16
2018-05-15T03:54:13.597Z,54.06
2018-05-15T03:54:39.733Z,54.16
2018-05-15T03:55:05.928Z,53.78
2018-05-15T03:55:32.067Z,53.78
2018-05-15T03:55:58.203Z,53.49
2018-05-15T03:56:24.362Z,53.49
2018-05-15T03:56:50.531Z,53.68
2018-05-15T03:57:16.692Z,53.97
2018-05-15T03:57:42.864Z,54.04
2018-05-15T03:58:08.996Z,54.45
2018-05-15T03:58:35.136Z,53.94
2018-05-15T03:59:01.279Z,53.87
2018-05-15T03:59:27.418Z,54.06
2018-05-15T03:59:53.557Z,54.06
2018-05-15T04:00:19.699Z,53.94
2018-05-15T04:00:45.837Z,54.13
2018-05-15T04:01:11.984Z,54.13
2018-05-15T04:01:38.180Z,53.87
2018-05-15T04:02:04.320Z,54.33
2018-05-15T04:02:30.502Z,54.33
2018-05-15T04:02:56.634Z,53.94
2018-05-15T04:03:22.779Z,54.33
2018-05-15T04:03:48.919Z,54.71
2018-05-15T04:04:15.083Z,54.74
2018-05-15T04:04:41.220Z,54.64
2018-05-15T04:05:07.364Z,54.64
2018-05-15T04:05:33.503Z,54.64
2018-05-15T04:05:59.641Z,54.35
2018-05-15T04:06:25.784Z,54.55
2018-05-15T04:06:51.917Z,54.55
2018-05-15T04:07:18.084Z,54.74
2018-05-15T04:07:44.237Z,54.45
2018-05-15T04:08:10.401Z,54.45
2018-05-15T04:08:36.580Z,54.64
2018-05-15T04:09:02.685Z,54.64
2018-05-15T04:09:28.820Z,53.87
2018-05-15T04:09:54.983Z,54.42
2018-05-15T04:10:21.133Z,53.66
2018-05-15T04:10:47.276Z,54.33
2018-05-15T04:11:13.443Z,54.71
2018-05-15T04:11:39.581Z,54.42
2018-05-15T04:12:05.726Z,54.13
2018-05-15T04:12:31.862Z,54.42
2018-05-15T04:12:58.015Z,54.42
2018-05-15T04:13:24.152Z,54.61
2018-05-15T04:13:50.325Z,55
2018-05-15T04:14:16.467Z,54.8
2018-05-15T04:14:42.622Z,55
2018-05-15T04:15:08.760Z,54.9
2018-05-15T04:15:34.925Z,54.83
2018-05-15T04:16:01.065Z,54.74
2018-05-15T04:16:27.198Z,55
2018-05-15T04:16:53.339Z,54.74
2018-05-15T04:17:19.506Z,54.64
2018-05-15T04:17:45.642Z,54.74
2018-05-15T04:18:11.809Z,54.64
2018-05-15T04:18:37.949Z,54.93
2018-05-15T04:19:04.155Z,55.22
2018-05-15T04:19:30.248Z,55.22
2018-05-15T04:19:56.387Z,54.83
2018-05-15T04:20:22.546Z,55.02
2018-05-15T04:20:48.690Z,54.74
2018-05-15T04:21:14.853Z,54.83
2018-05-15T04:21:40.996Z,54.64
2018-05-15T04:22:07.160Z,54.45
2018-05-15T04:22:33.300Z,54.45
2018-05-15T04:22:59.439Z,54.55
2018-05-15T04:23:25.613Z,54.83
2018-05-15T04:23:51.758Z,54.64
2018-05-15T04:24:17.895Z,54.71
2018-05-15T04:24:44.031Z,54.35
2018-05-15T04:25:10.173Z,54.55
2018-05-15T04:25:36.311Z,54.33
2018-05-15T04:26:02.451Z,54.74
2018-05-15T04:26:28.613Z,54.64
2018-05-15T04:26:54.754Z,54.74
2018-05-15T04:27:20.899Z,54.83
2018-05-15T04:27:47.038Z,55
2018-05-15T04:28:13.319Z,54.71
2018-05-15T04:28:39.357Z,54.61
2018-05-15T04:29:05.527Z,54.64
2018-05-15T04:29:31.668Z,55
2018-05-15T04:29:57.840Z,55.32
2018-05-15T04:30:23.970Z,55.12
2018-05-15T04:30:50.112Z,55.51
2018-05-15T04:31:16.244Z,55.02
2018-05-15T04:31:42.390Z,54.83
2018-05-15T04:32:08.527Z,55.12
2018-05-15T04:32:34.663Z,55.02
2018-05-15T04:33:00.817Z,55.22
2018-05-15T04:33:26.950Z,55.02
2018-05-15T04:33:53.084Z,55.57
2018-05-15T04:34:19.223Z,54.93
2018-05-15T04:34:45.419Z,55.02
2018-05-15T04:35:11.602Z,54.74
2018-05-15T04:35:37.772Z,54.93
2018-05-15T04:36:03.913Z,55.12
2018-05-15T04:36:30.074Z,54.74
2018-05-15T04:36:56.248Z,55.22
2018-05-15T04:37:22.388Z,54.74
2018-05-15T04:37:48.562Z,54.64
2018-05-15T04:38:14.701Z,55.02
2018-05-15T04:38:40.843Z,55.02
2018-05-15T04:39:06.973Z,55.22
2018-05-15T04:39:33.113Z,54.93
2018-05-15T04:39:59.250Z,55.32
2018-05-15T04:40:25.392Z,55.22
2018-05-15T04:40:51.537Z,55.12
2018-05-15T04:41:17.673Z,55.02
2018-05-15T04:41:43.820Z,54.74
2018-05-15T04:42:09.961Z,54.55
2018-05-15T04:42:36.101Z,54.74
2018-05-15T04:43:02.242Z,54.93
2018-05-15T04:43:28.473Z,55.02
2018-05-15T04:43:54.659Z,55.22
2018-05-15T04:44:20.706Z,55.12
2018-05-15T04:44:46.851Z,55.32
2018-05-15T04:45:13.022Z,54.83
2018-05-15T04:45:39.158Z,54.83
2018-05-15T04:46:05.301Z,54.93
2018-05-15T04:46:31.440Z,54.83
2018-05-15T04:46:57.602Z,54.74
2018-05-15T04:47:23.765Z,54.55
2018-05-15T04:47:49.928Z,54.55
2018-05-15T04:48:16.061Z,54.55
2018-05-15T04:48:42.203Z,54.8
2018-05-15T04:49:08.340Z,55.02
2018-05-15T04:49:34.521Z,54.83
2018-05-15T04:50:00.663Z,54.71
2018-05-15T04:50:26.822Z,55.29
2018-05-15T04:50:52.985Z,55.22
2018-05-15T04:51:19.127Z,55.32
2018-05-15T04:51:45.260Z,54.74
2018-05-15T04:52:11.394Z,55.02
2018-05-15T04:52:37.542Z,54.83
2018-05-15T04:53:03.681Z,54.55
2018-05-15T04:53:29.827Z,54.25
2018-05-15T04:53:55.960Z,54.55
2018-05-15T04:54:22.107Z,54.45
2018-05-15T04:54:48.243Z,54.16
2018-05-15T04:55:14.402Z,54.8
2018-05-15T04:55:40.624Z,54.83
2018-05-15T04:56:06.723Z,55.12
2018-05-15T04:56:32.869Z,54.74
2018-05-15T04:56:59.002Z,54.64
2018-05-15T04:57:25.136Z,54.55
2018-05-15T04:57:51.275Z,54.25
2018-05-15T04:58:17.414Z,54.71
2018-05-15T04:58:43.576Z,55.19
2018-05-15T04:59:09.722Z,55.89
2018-05-15T04:59:35.885Z,55.12
2018-05-15T05:00:02.034Z,54.74
2018-05-15T05:00:28.197Z,54.61
2018-05-15T05:00:54.359Z,54.8
2018-05-15T05:01:20.500Z,55
2018-05-15T05:01:46.643Z,55.1
2018-05-15T05:02:12.792Z,55.19
2018-05-15T05:02:38.941Z,54.8
2018-05-15T05:03:05.085Z,54.9
2018-05-15T05:03:31.225Z,55.29
2018-05-15T05:03:57.364Z,55.02
2018-05-15T05:04:23.534Z,55.12
2018-05-15T05:04:49.672Z,55.22
2018-05-15T05:05:15.808Z,55.02
2018-05-15T05:05:41.951Z,54.83
2018-05-15T05:06:08.096Z,54.93
2018-05-15T05:06:34.238Z,55.02
2018-05-15T05:07:00.377Z,54.74
2018-05-15T05:07:26.542Z,54.93
2018-05-15T05:07:52.678Z,54.64
2018-05-15T05:08:18.815Z,54.83
2018-05-15T05:08:44.947Z,54.74
2018-05-15T05:09:11.116Z,55.02
2018-05-15T05:09:37.271Z,54.83
2018-05-15T05:10:03.430Z,54.64
2018-05-15T05:10:29.574Z,53.68
2018-05-15T05:10:55.720Z,54.64
2018-05-15T05:11:21.857Z,54.55
2018-05-15T05:11:48.067Z,54.16
2018-05-15T05:12:14.140Z,53.97
2018-05-15T05:12:40.301Z,54.45
2018-05-15T05:13:06.448Z,53.87
2018-05-15T05:13:32.608Z,54.55
2018-05-15T05:13:58.753Z,54.64
2018-05-15T05:14:24.888Z,54.55
2018-05-15T05:14:51.055Z,54.74
2018-05-15T05:15:17.219Z,53.97
2018-05-15T05:15:43.365Z,54.55
2018-05-15T05:16:09.505Z,54.64
2018-05-15T05:16:35.663Z,54.35
2018-05-15T05:17:01.832Z,54.55
2018-05-15T05:17:27.994Z,54.35
2018-05-15T05:17:54.134Z,54.64
2018-05-15T05:18:20.294Z,54.64
2018-05-15T05:18:46.442Z,54.06
2018-05-15T05:19:12.587Z,54.16
2018-05-15T05:19:38.724Z,54.16
2018-05-15T05:20:04.864Z,53.97
2018-05-15T05:20:31.005Z,54.06
2018-05-15T05:20:57.200Z,54.25
2018-05-15T05:21:23.331Z,54.64
2018-05-15T05:21:49.488Z,54.64
2018-05-15T05:22:15.656Z,54.45
2018-05-15T05:22:41.792Z,54.64
2018-05-15T05:23:07.933Z,54.16
2018-05-15T05:23:34.104Z,53.97
2018-05-15T05:24:00.243Z,54.25
2018-05-15T05:24:27.296Z,54.06
2018-05-15T05:24:53.823Z,53.58
2018-05-15T05:25:20.013Z,53.58
2018-05-15T05:25:46.204Z,53.68
2018-05-15T05:26:12.356Z,53.39
2018-05-15T05:26:38.496Z,53.87
2018-05-15T05:27:04.708Z,53.68
2018-05-15T05:27:30.766Z,54.25
2018-05-15T05:27:56.918Z,54.45
2018-05-15T05:28:23.079Z,53.87
2018-05-15T05:28:49.197Z,53.01
2018-05-15T05:29:15.356Z,53.3
2018-05-15T05:29:41.517Z,53.68
2018-05-15T05:30:07.792Z,52.91
2018-05-15T05:30:33.931Z,52.72
2018-05-15T05:31:00.121Z,52.62
2018-05-15T05:31:26.264Z,53.01
2018-05-15T05:31:52.409Z,52.62
2018-05-15T05:32:18.545Z,52.62
2018-05-15T05:32:44.691Z,53.3
2018-05-15T05:33:10.886Z,53.01
2018-05-15T05:33:37.083Z,53.58
2018-05-15T05:34:03.229Z,53.23
2018-05-15T05:34:29.360Z,53.39
2018-05-15T05:34:55.502Z,53.42
2018-05-15T05:35:21.644Z,53.7
2018-05-15T05:35:47.784Z,52.94
2018-05-15T05:36:13.925Z,52.94
2018-05-15T05:36:40.089Z,53.03
2018-05-15T05:37:06.227Z,52.94
2018-05-15T05:37:32.449Z,53.03
2018-05-15T05:37:58.620Z,53.32